sensor_id;sensor_type;location;lat;lon;timestamp;P1;durP1;ratioP1;P2;durP2;ratioP2
49582;SDS011;36329;48.816;44.624;2023-01-15T00:01:51;33.9;;;3.4;;
49582;SDS011;36329;48.816;44.624;2023-01-15T00:04:53;26.3;;;2.6;;
49582;SDS011;36329;48.816;44.624;2023-01-15T00:07:54;22.9;;;3.3;;
49582;SDS011;36329;48.816;44.624;2023-01-15T00:10:56;25.2;;;3.3;;
49582;SDS011;36329;48.816;44.624;2023-01-15T00:13:58;32.6;;;3.8;;
49582;SDS011;36329;48.816;44.624;2023-01-15T00:16:59;31.3;;;3.3;;
49582;SDS011;36329;48.816;44.624;2023-01-15T00:20:01;31.8;;;3.4;;
49582;SDS011;36329;48.816;44.624;2023-01-15T00:23:04;31.3;;;3.2;;
49582;SDS011;36329;48.816;44.624;2023-01-15T00:26:07;23.4;;;3.1;;
49582;SDS011;36329;48.816;44.624;2023-01-15T00:29:10;25.9;;;3.3;;
49582;SDS011;36329;48.816;44.624;2023-01-15T00:32:12;23.8;;;2.6;;
49582;SDS011;36329;48.816;44.624;2023-01-15T00:35:14;25.7;;;3.3;;
49582;SDS011;36329;48.816;44.624;2023-01-15T00:38:18;35.7;;;3.4;;
49582;SDS011;36329;48.816;44.624;2023-01-15T00:41:19;29.2;;;2.8;;
49582;SDS011;36329;48.816;44.624;2023-01-15T00:44:21;38.7;;;3.5;;
49582;SDS011;36329;48.816;44.624;2023-01-15T00:47:23;27.6;;;3;;
49582;SDS011;36329;48.816;44.624;2023-01-15T00:50:25;23.3;;;2.9;;
49582;SDS011;36329;48.816;44.624;2023-01-15T00:53:27;35.6;;;3.6;;
49582;SDS011;36329;48.816;44.624;2023-01-15T00:56:28;26.7;;;3.1;;
49582;SDS011;36329;48.816;44.624;2023-01-15T00:59:30;35.6;;;2.8;;
49582;SDS011;36329;48.816;44.624;2023-01-15T01:02:32;35.2;;;3.2;;
49582;SDS011;36329;48.816;44.624;2023-01-15T01:05:33;35.1;;;3;;
49582;SDS011;36329;48.816;44.624;2023-01-15T01:08:35;28.7;;;2.9;;
49582;SDS011;36329;48.816;44.624;2023-01-15T01:11:36;30.8;;;3.6;;
49582;SDS011;36329;48.816;44.624;2023-01-15T01:14:38;28.5;;;3.9;;
49582;SDS011;36329;48.816;44.624;2023-01-15T01:17:39;26.8;;;3.2;;
49582;SDS011;36329;48.816;44.624;2023-01-15T01:20:41;27.3;;;3.4;;
49582;SDS011;36329;48.816;44.624;2023-01-15T01:23:42;29.5;;;2.9;;
49582;SDS011;36329;48.816;44.624;2023-01-15T01:26:44;26.5;;;2.8;;
49582;SDS011;36329;48.816;44.624;2023-01-15T01:29:46;37.1;;;2.9;;
49582;SDS011;36329;48.816;44.624;2023-01-15T01:32:48;21.5;;;2.7;;
49582;SDS011;36329;48.816;44.624;2023-01-15T01:35:50;29.2;;;2.9;;
49582;SDS011;36329;48.816;44.624;2023-01-15T01:38:51;32.8;;;2.7;;
49582;SDS011;36329;48.816;44.624;2023-01-15T01:41:53;20.6;;;2.5;;
49582;SDS011;36329;48.816;44.624;2023-01-15T01:44:59;34.2;;;3.7;;
49582;SDS011;36329;48.816;44.624;2023-01-15T01:48:05;35.3;;;4.1;;
49582;SDS011;36329;48.816;44.624;2023-01-15T01:51:07;21.6;;;2.6;;
49582;SDS011;36329;48.816;44.624;2023-01-15T01:54:09;31.7;;;2.9;;
49582;SDS011;36329;48.816;44.624;2023-01-15T01:57:16;30.8;;;2.6;;
49582;SDS011;36329;48.816;44.624;2023-01-15T02:00:21;31;;;3.5;;
49582;SDS011;36329;48.816;44.624;2023-01-15T02:03:24;37.1;;;2.5;;
49582;SDS011;36329;48.816;44.624;2023-01-15T02:06:31;40.7;;;3.5;;
49582;SDS011;36329;48.816;44.624;2023-01-15T02:09:33;24.8;;;2.6;;
49582;SDS011;36329;48.816;44.624;2023-01-15T02:12:35;40.7;;;3.1;;
49582;SDS011;36329;48.816;44.624;2023-01-15T02:15:39;36.4;;;3.7;;
49582;SDS011;36329;48.816;44.624;2023-01-15T02:18:48;24.4;;;2.7;;
49582;SDS011;36329;48.816;44.624;2023-01-15T02:21:58;32.8;;;2.9;;
49582;SDS011;36329;48.816;44.624;2023-01-15T02:25:06;38;;;3.8;;
49582;SDS011;36329;48.816;44.624;2023-01-15T02:28:15;36.1;;;3.2;;
49582;SDS011;36329;48.816;44.624;2023-01-15T02:31:24;37.6;;;4.4;;
49582;SDS011;36329;48.816;44.624;2023-01-15T02:34:31;33.3;;;2.9;;
49582;SDS011;36329;48.816;44.624;2023-01-15T02:37:36;24.8;;;2.1;;
49582;SDS011;36329;48.816;44.624;2023-01-15T02:40:42;28.3;;;3;;
49582;SDS011;36329;48.816;44.624;2023-01-15T02:43:46;22.3;;;2.5;;
49582;SDS011;36329;48.816;44.624;2023-01-15T02:46:51;17;;;2.3;;
49582;SDS011;36329;48.816;44.624;2023-01-15T02:49:56;29.7;;;3.2;;
49582;SDS011;36329;48.816;44.624;2023-01-15T02:53:04;37;;;2.5;;
49582;SDS011;36329;48.816;44.624;2023-01-15T02:56:10;25.3;;;2.9;;
49582;SDS011;36329;48.816;44.624;2023-01-15T02:59:17;15.5;;;2.5;;
49582;SDS011;36329;48.816;44.624;2023-01-15T03:02:24;15.9;;;2;;
49582;SDS011;36329;48.816;44.624;2023-01-15T03:05:31;27.6;;;3.1;;
49582;SDS011;36329;48.816;44.624;2023-01-15T03:08:37;21.6;;;2.8;;
49582;SDS011;36329;48.816;44.624;2023-01-15T03:11:42;26.8;;;3.1;;
49582;SDS011;36329;48.816;44.624;2023-01-15T03:14:51;21.5;;;2.2;;
49582;SDS011;36329;48.816;44.624;2023-01-15T03:17:58;17.1;;;2.3;;
49582;SDS011;36329;48.816;44.624;2023-01-15T03:21:04;18.6;;;2.2;;
49582;SDS011;36329;48.816;44.624;2023-01-15T03:24:12;22.2;;;2.6;;
49582;SDS011;36329;48.816;44.624;2023-01-15T03:27:19;13.9;;;2.1;;
49582;SDS011;36329;48.816;44.624;2023-01-15T03:30:22;20.1;;;2.5;;
49582;SDS011;36329;48.816;44.624;2023-01-15T03:33:23;22.4;;;3.2;;
49582;SDS011;36329;48.816;44.624;2023-01-15T03:36:25;29.5;;;2.9;;
49582;SDS011;36329;48.816;44.624;2023-01-15T03:39:27;15.3;;;2.5;;
49582;SDS011;36329;48.816;44.624;2023-01-15T03:42:42;16.6;;;2;;
49582;SDS011;36329;48.816;44.624;2023-01-15T03:45:51;20.3;;;2.5;;
49582;SDS011;36329;48.816;44.624;2023-01-15T03:48:59;18;;;2.1;;
49582;SDS011;36329;48.816;44.624;2023-01-15T03:52:10;17.2;;;2.6;;
49582;SDS011;36329;48.816;44.624;2023-01-15T03:55:18;9.5;;;1.9;;
49582;SDS011;36329;48.816;44.624;2023-01-15T03:58:23;10.8;;;1.7;;
49582;SDS011;36329;48.816;44.624;2023-01-15T04:01:29;14.2;;;2.6;;
49582;SDS011;36329;48.816;44.624;2023-01-15T04:04:35;18.3;;;2.6;;
49582;SDS011;36329;48.816;44.624;2023-01-15T04:07:38;13.4;;;2.5;;
49582;SDS011;36329;48.816;44.624;2023-01-15T04:10:49;15.1;;;3;;
49582;SDS011;36329;48.816;44.624;2023-01-15T04:13:52;22;;;3;;
49582;SDS011;36329;48.816;44.624;2023-01-15T04:16:53;14.5;;;2.2;;
49582;SDS011;36329;48.816;44.624;2023-01-15T04:19:55;16.7;;;2.2;;
49582;SDS011;36329;48.816;44.624;2023-01-15T04:22:56;13.7;;;2.5;;
49582;SDS011;36329;48.816;44.624;2023-01-15T04:25:58;12.2;;;2.3;;
49582;SDS011;36329;48.816;44.624;2023-01-15T04:28:59;11.1;;;2.2;;
49582;SDS011;36329;48.816;44.624;2023-01-15T04:32:01;9.7;;;1.9;;
49582;SDS011;36329;48.816;44.624;2023-01-15T04:35:03;12.5;;;2.2;;
49582;SDS011;36329;48.816;44.624;2023-01-15T04:38:05;14.2;;;2.2;;
49582;SDS011;36329;48.816;44.624;2023-01-15T04:41:06;12.1;;;2.1;;
49582;SDS011;36329;48.816;44.624;2023-01-15T04:44:10;12.3;;;2;;
49582;SDS011;36329;48.816;44.624;2023-01-15T04:47:11;10.2;;;2;;
49582;SDS011;36329;48.816;44.624;2023-01-15T04:50:13;14.4;;;2.3;;
49582;SDS011;36329;48.816;44.624;2023-01-15T04:53:15;13.3;;;2.3;;
49582;SDS011;36329;48.816;44.624;2023-01-15T04:56:17;16.6;;;2.3;;
49582;SDS011;36329;48.816;44.624;2023-01-15T04:59:19;6.7;;;1.5;;
49582;SDS011;36329;48.816;44.624;2023-01-15T05:02:23;9.9;;;1.6;;
49582;SDS011;36329;48.816;44.624;2023-01-15T05:05:27;10.8;;;1.9;;
49582;SDS011;36329;48.816;44.624;2023-01-15T05:08:35;10.9;;;1.9;;
49582;SDS011;36329;48.816;44.624;2023-01-15T05:11:39;10;;;1.9;;
49582;SDS011;36329;48.816;44.624;2023-01-15T05:14:41;9.7;;;1.8;;
49582;SDS011;36329;48.816;44.624;2023-01-15T05:17:45;16.2;;;2.4;;
49582;SDS011;36329;48.816;44.624;2023-01-15T05:20:49;10.1;;;1.8;;
49582;SDS011;36329;48.816;44.624;2023-01-15T05:23:51;5.8;;;1.7;;
49582;SDS011;36329;48.816;44.624;2023-01-15T05:26:54;7.7;;;1.5;;
49582;SDS011;36329;48.816;44.624;2023-01-15T05:29:57;9.9;;;2;;
49582;SDS011;36329;48.816;44.624;2023-01-15T05:32:59;5.4;;;1.8;;
49582;SDS011;36329;48.816;44.624;2023-01-15T05:36:01;11.9;;;1.6;;
49582;SDS011;36329;48.816;44.624;2023-01-15T05:39:03;13.9;;;1.4;;
49582;SDS011;36329;48.816;44.624;2023-01-15T05:42:05;6.1;;;1.9;;
49582;SDS011;36329;48.816;44.624;2023-01-15T05:45:08;8;;;1.8;;
49582;SDS011;36329;48.816;44.624;2023-01-15T05:48:09;8.7;;;1.5;;
49582;SDS011;36329;48.816;44.624;2023-01-15T05:51:11;13.9;;;1.6;;
49582;SDS011;36329;48.816;44.624;2023-01-15T05:54:13;11.4;;;1.8;;
49582;SDS011;36329;48.816;44.624;2023-01-15T05:57:17;10.6;;;1.7;;
49582;SDS011;36329;48.816;44.624;2023-01-15T06:00:20;11.6;;;1.7;;
49582;SDS011;36329;48.816;44.624;2023-01-15T06:03:22;9;;;1.9;;
49582;SDS011;36329;48.816;44.624;2023-01-15T06:06:25;14.5;;;2.4;;
49582;SDS011;36329;48.816;44.624;2023-01-15T06:09:28;8.8;;;1.7;;
49582;SDS011;36329;48.816;44.624;2023-01-15T06:12:30;9.4;;;2;;
49582;SDS011;36329;48.816;44.624;2023-01-15T06:15:33;11.4;;;2;;
49582;SDS011;36329;48.816;44.624;2023-01-15T06:18:34;10;;;1.9;;
49582;SDS011;36329;48.816;44.624;2023-01-15T06:21:36;7.2;;;1.9;;
49582;SDS011;36329;48.816;44.624;2023-01-15T06:24:37;10;;;2.6;;
49582;SDS011;36329;48.816;44.624;2023-01-15T06:27:39;8.9;;;2.1;;
49582;SDS011;36329;48.816;44.624;2023-01-15T06:30:40;7.6;;;2.7;;
49582;SDS011;36329;48.816;44.624;2023-01-15T06:33:42;12.7;;;2.4;;
49582;SDS011;36329;48.816;44.624;2023-01-15T06:36:44;7.1;;;1.8;;
49582;SDS011;36329;48.816;44.624;2023-01-15T06:39:46;11.9;;;2.4;;
49582;SDS011;36329;48.816;44.624;2023-01-15T06:42:48;16.3;;;2.6;;
49582;SDS011;36329;48.816;44.624;2023-01-15T06:45:50;9.5;;;1.8;;
49582;SDS011;36329;48.816;44.624;2023-01-15T06:48:52;14.1;;;2.1;;
49582;SDS011;36329;48.816;44.624;2023-01-15T06:51:54;6.1;;;2.1;;
49582;SDS011;36329;48.816;44.624;2023-01-15T06:54:55;8.9;;;2;;
49582;SDS011;36329;48.816;44.624;2023-01-15T06:57:57;7.7;;;2.1;;
49582;SDS011;36329;48.816;44.624;2023-01-15T07:00:59;11.5;;;2.3;;
49582;SDS011;36329;48.816;44.624;2023-01-15T07:04:00;15.2;;;2.4;;
49582;SDS011;36329;48.816;44.624;2023-01-15T07:07:02;12.9;;;2.7;;
49582;SDS011;36329;48.816;44.624;2023-01-15T07:10:05;12.1;;;2.5;;
49582;SDS011;36329;48.816;44.624;2023-01-15T07:13:08;13.4;;;3;;
49582;SDS011;36329;48.816;44.624;2023-01-15T07:16:10;13.7;;;2.6;;
49582;SDS011;36329;48.816;44.624;2023-01-15T07:19:11;12;;;2.4;;
49582;SDS011;36329;48.816;44.624;2023-01-15T07:22:18;12;;;2.9;;
49582;SDS011;36329;48.816;44.624;2023-01-15T07:25:21;13.1;;;3.1;;
49582;SDS011;36329;48.816;44.624;2023-01-15T07:28:22;13.1;;;3;;
49582;SDS011;36329;48.816;44.624;2023-01-15T07:31:24;12.2;;;2.8;;
49582;SDS011;36329;48.816;44.624;2023-01-15T07:34:26;14.9;;;2.7;;
49582;SDS011;36329;48.816;44.624;2023-01-15T07:37:27;16;;;2.4;;
49582;SDS011;36329;48.816;44.624;2023-01-15T07:40:29;12.9;;;2.6;;
49582;SDS011;36329;48.816;44.624;2023-01-15T07:43:31;8.1;;;2.4;;
49582;SDS011;36329;48.816;44.624;2023-01-15T07:46:32;12.1;;;2.5;;
49582;SDS011;36329;48.816;44.624;2023-01-15T07:49:34;13.3;;;3;;
49582;SDS011;36329;48.816;44.624;2023-01-15T07:52:35;19.7;;;3.2;;
49582;SDS011;36329;48.816;44.624;2023-01-15T07:55:37;14.7;;;2.8;;
49582;SDS011;36329;48.816;44.624;2023-01-15T07:58:39;20;;;2.6;;
49582;SDS011;36329;48.816;44.624;2023-01-15T08:01:41;11.4;;;2.4;;
49582;SDS011;36329;48.816;44.624;2023-01-15T08:04:43;15.4;;;2.6;;
49582;SDS011;36329;48.816;44.624;2023-01-15T08:07:44;15.3;;;3.1;;
49582;SDS011;36329;48.816;44.624;2023-01-15T08:10:47;17.5;;;3.2;;
49582;SDS011;36329;48.816;44.624;2023-01-15T08:13:48;16.4;;;2.5;;
49582;SDS011;36329;48.816;44.624;2023-01-15T08:16:50;14.2;;;2.6;;
49582;SDS011;36329;48.816;44.624;2023-01-15T08:19:52;15.4;;;2.4;;
49582;SDS011;36329;48.816;44.624;2023-01-15T08:22:54;10.7;;;2.3;;
49582;SDS011;36329;48.816;44.624;2023-01-15T08:25:57;9.6;;;2.5;;
49582;SDS011;36329;48.816;44.624;2023-01-15T08:28:59;10.4;;;2.5;;
49582;SDS011;36329;48.816;44.624;2023-01-15T08:32:01;15;;;2.5;;
49582;SDS011;36329;48.816;44.624;2023-01-15T08:35:03;20.7;;;2.9;;
49582;SDS011;36329;48.816;44.624;2023-01-15T08:38:06;12.1;;;2;;
49582;SDS011;36329;48.816;44.624;2023-01-15T08:41:08;13.8;;;2.2;;
49582;SDS011;36329;48.816;44.624;2023-01-15T08:44:10;13.6;;;2.2;;
49582;SDS011;36329;48.816;44.624;2023-01-15T08:47:11;12.4;;;2.7;;
49582;SDS011;36329;48.816;44.624;2023-01-15T08:50:13;17.6;;;2.6;;
49582;SDS011;36329;48.816;44.624;2023-01-15T08:53:15;6;;;1.9;;
49582;SDS011;36329;48.816;44.624;2023-01-15T08:56:18;14.5;;;2.5;;
49582;SDS011;36329;48.816;44.624;2023-01-15T08:59:20;19.6;;;2.6;;
49582;SDS011;36329;48.816;44.624;2023-01-15T09:02:21;10.8;;;2.4;;
49582;SDS011;36329;48.816;44.624;2023-01-15T09:05:23;11;;;2.2;;
49582;SDS011;36329;48.816;44.624;2023-01-15T09:08:25;12.8;;;2;;
49582;SDS011;36329;48.816;44.624;2023-01-15T09:11:27;18;;;2.6;;
49582;SDS011;36329;48.816;44.624;2023-01-15T09:14:29;13.6;;;2.6;;
49582;SDS011;36329;48.816;44.624;2023-01-15T09:17:30;9.9;;;2.1;;
49582;SDS011;36329;48.816;44.624;2023-01-15T09:20:32;14.6;;;2.5;;
49582;SDS011;36329;48.816;44.624;2023-01-15T09:23:34;11.5;;;2.7;;
49582;SDS011;36329;48.816;44.624;2023-01-15T09:26:37;12.2;;;2.2;;
49582;SDS011;36329;48.816;44.624;2023-01-15T09:29:40;9.9;;;2.2;;
49582;SDS011;36329;48.816;44.624;2023-01-15T09:32:41;16.7;;;2.2;;
49582;SDS011;36329;48.816;44.624;2023-01-15T09:35:43;13.2;;;2.4;;
49582;SDS011;36329;48.816;44.624;2023-01-15T09:38:45;12.3;;;2.4;;
49582;SDS011;36329;48.816;44.624;2023-01-15T09:41:50;20.2;;;2.6;;
49582;SDS011;36329;48.816;44.624;2023-01-15T09:45:13;12.9;;;2.8;;
49582;SDS011;36329;48.816;44.624;2023-01-15T09:48:27;11.7;;;2.8;;
49582;SDS011;36329;48.816;44.624;2023-01-15T09:51:40;11.6;;;2.5;;
49582;SDS011;36329;48.816;44.624;2023-01-15T09:54:52;17.6;;;2.6;;
49582;SDS011;36329;48.816;44.624;2023-01-15T09:58:01;11;;;2.6;;
49582;SDS011;36329;48.816;44.624;2023-01-15T10:01:05;25.1;;;2.7;;
49582;SDS011;36329;48.816;44.624;2023-01-15T10:04:12;13.6;;;2.4;;
49582;SDS011;36329;48.816;44.624;2023-01-15T10:07:22;17.5;;;2.6;;
49582;SDS011;36329;48.816;44.624;2023-01-15T10:10:30;8.7;;;2;;
49582;SDS011;36329;48.816;44.624;2023-01-15T10:13:37;12.5;;;2.1;;
49582;SDS011;36329;48.816;44.624;2023-01-15T10:16:44;10.9;;;2.5;;
49582;SDS011;36329;48.816;44.624;2023-01-15T10:19:45;11.7;;;2.4;;
49582;SDS011;36329;48.816;44.624;2023-01-15T10:22:52;14.2;;;2.5;;
49582;SDS011;36329;48.816;44.624;2023-01-15T10:26:04;10.1;;;2.5;;
49582;SDS011;36329;48.816;44.624;2023-01-15T10:29:14;10.6;;;2.2;;
49582;SDS011;36329;48.816;44.624;2023-01-15T10:32:24;12.2;;;2.3;;
49582;SDS011;36329;48.816;44.624;2023-01-15T10:35:35;10.7;;;2.4;;
49582;SDS011;36329;48.816;44.624;2023-01-15T10:38:43;12.4;;;2.7;;
49582;SDS011;36329;48.816;44.624;2023-01-15T10:41:56;12.6;;;2.6;;
49582;SDS011;36329;48.816;44.624;2023-01-15T10:45:05;18;;;2.6;;
49582;SDS011;36329;48.816;44.624;2023-01-15T10:48:15;12;;;2;;
49582;SDS011;36329;48.816;44.624;2023-01-15T10:51:22;13.2;;;2.3;;
49582;SDS011;36329;48.816;44.624;2023-01-15T10:54:30;10.4;;;2.4;;
49582;SDS011;36329;48.816;44.624;2023-01-15T10:57:40;13.5;;;2.2;;
49582;SDS011;36329;48.816;44.624;2023-01-15T11:00:49;12;;;2.4;;
49582;SDS011;36329;48.816;44.624;2023-01-15T11:03:57;11.4;;;2.1;;
49582;SDS011;36329;48.816;44.624;2023-01-15T11:06:59;17.6;;;2.5;;
49582;SDS011;36329;48.816;44.624;2023-01-15T11:10:01;10.9;;;3.1;;
49582;SDS011;36329;48.816;44.624;2023-01-15T11:13:11;13.1;;;2.7;;
49582;SDS011;36329;48.816;44.624;2023-01-15T11:16:21;17.7;;;3.5;;
49582;SDS011;36329;48.816;44.624;2023-01-15T11:19:27;11.6;;;2.3;;
49582;SDS011;36329;48.816;44.624;2023-01-15T11:22:30;15.1;;;2.7;;
49582;SDS011;36329;48.816;44.624;2023-01-15T11:25:46;11.9;;;2.5;;
49582;SDS011;36329;48.816;44.624;2023-01-15T11:28:49;10.4;;;2;;
49582;SDS011;36329;48.816;44.624;2023-01-15T11:31:52;19.3;;;2.6;;
49582;SDS011;36329;48.816;44.624;2023-01-15T11:34:54;10;;;2.4;;
49582;SDS011;36329;48.816;44.624;2023-01-15T11:38:01;17.7;;;2.8;;
49582;SDS011;36329;48.816;44.624;2023-01-15T11:41:02;12.8;;;2.4;;
49582;SDS011;36329;48.816;44.624;2023-01-15T11:44:08;9.9;;;2.1;;
49582;SDS011;36329;48.816;44.624;2023-01-15T11:47:11;14.6;;;2.2;;
49582;SDS011;36329;48.816;44.624;2023-01-15T11:50:16;10.5;;;2.2;;
49582;SDS011;36329;48.816;44.624;2023-01-15T11:53:20;16.2;;;2.3;;
49582;SDS011;36329;48.816;44.624;2023-01-15T11:56:25;15.6;;;2.3;;
49582;SDS011;36329;48.816;44.624;2023-01-15T11:59:29;13.6;;;2.2;;
49582;SDS011;36329;48.816;44.624;2023-01-15T12:02:32;11.5;;;2.5;;
49582;SDS011;36329;48.816;44.624;2023-01-15T12:05:43;14.3;;;2.1;;
49582;SDS011;36329;48.816;44.624;2023-01-15T12:08:47;14.7;;;2;;
49582;SDS011;36329;48.816;44.624;2023-01-15T12:11:55;14.3;;;2.4;;
49582;SDS011;36329;48.816;44.624;2023-01-15T12:15:08;12.6;;;2.1;;
49582;SDS011;36329;48.816;44.624;2023-01-15T12:18:24;10.8;;;2.3;;
49582;SDS011;36329;48.816;44.624;2023-01-15T12:21:40;18.8;;;2;;
49582;SDS011;36329;48.816;44.624;2023-01-15T12:24:52;21;;;2.6;;
49582;SDS011;36329;48.816;44.624;2023-01-15T12:28:01;8.1;;;2.3;;
49582;SDS011;36329;48.816;44.624;2023-01-15T12:31:07;14.9;;;2.8;;
49582;SDS011;36329;48.816;44.624;2023-01-15T12:34:16;15.9;;;2.2;;
49582;SDS011;36329;48.816;44.624;2023-01-15T12:37:23;10.1;;;2.1;;
49582;SDS011;36329;48.816;44.624;2023-01-15T12:40:28;10.8;;;2.2;;
49582;SDS011;36329;48.816;44.624;2023-01-15T12:43:32;7.7;;;2.2;;
49582;SDS011;36329;48.816;44.624;2023-01-15T12:46:34;16.6;;;2.4;;
49582;SDS011;36329;48.816;44.624;2023-01-15T12:49:44;15.3;;;2.7;;
49582;SDS011;36329;48.816;44.624;2023-01-15T12:52:51;8;;;2.4;;
49582;SDS011;36329;48.816;44.624;2023-01-15T12:56:00;15.1;;;2.7;;
49582;SDS011;36329;48.816;44.624;2023-01-15T12:59:09;14.5;;;2.6;;
49582;SDS011;36329;48.816;44.624;2023-01-15T13:02:20;11.3;;;2.5;;
49582;SDS011;36329;48.816;44.624;2023-01-15T13:05:27;13.3;;;2.6;;
49582;SDS011;36329;48.816;44.624;2023-01-15T13:08:32;12.2;;;2.6;;
49582;SDS011;36329;48.816;44.624;2023-01-15T13:11:38;8;;;2.5;;
49582;SDS011;36329;48.816;44.624;2023-01-15T13:14:39;12.3;;;2.3;;
49582;SDS011;36329;48.816;44.624;2023-01-15T13:17:44;13.5;;;2.7;;
49582;SDS011;36329;48.816;44.624;2023-01-15T13:20:54;15;;;2.1;;
49582;SDS011;36329;48.816;44.624;2023-01-15T13:24:02;15.8;;;2.7;;
49582;SDS011;36329;48.816;44.624;2023-01-15T13:27:15;9.3;;;2.2;;
49582;SDS011;36329;48.816;44.624;2023-01-15T13:30:29;11.6;;;2.3;;
49582;SDS011;36329;48.816;44.624;2023-01-15T13:33:40;13.3;;;2.5;;
49582;SDS011;36329;48.816;44.624;2023-01-15T13:36:45;11.7;;;2.3;;
49582;SDS011;36329;48.816;44.624;2023-01-15T13:39:49;10;;;2.3;;
49582;SDS011;36329;48.816;44.624;2023-01-15T13:42:53;14.3;;;2.1;;
49582;SDS011;36329;48.816;44.624;2023-01-15T13:45:56;13.8;;;2.3;;
49582;SDS011;36329;48.816;44.624;2023-01-15T13:48:58;8;;;1.8;;
49582;SDS011;36329;48.816;44.624;2023-01-15T13:52:00;7.6;;;2;;
49582;SDS011;36329;48.816;44.624;2023-01-15T13:55:07;6.7;;;2.1;;
49582;SDS011;36329;48.816;44.624;2023-01-15T13:58:19;8.4;;;2.3;;
49582;SDS011;36329;48.816;44.624;2023-01-15T14:01:30;11.5;;;2.2;;
49582;SDS011;36329;48.816;44.624;2023-01-15T14:04:35;11.9;;;2.2;;
49582;SDS011;36329;48.816;44.624;2023-01-15T14:07:38;11.5;;;2;;
49582;SDS011;36329;48.816;44.624;2023-01-15T14:10:40;9.3;;;1.8;;
49582;SDS011;36329;48.816;44.624;2023-01-15T14:13:46;11.7;;;2.1;;
49582;SDS011;36329;48.816;44.624;2023-01-15T14:16:58;9.1;;;2.3;;
49582;SDS011;36329;48.816;44.624;2023-01-15T14:20:32;9.3;;;2.2;;
49582;SDS011;36329;48.816;44.624;2023-01-15T14:23:41;11.3;;;2.3;;
49582;SDS011;36329;48.816;44.624;2023-01-15T14:26:52;9.8;;;2.1;;
49582;SDS011;36329;48.816;44.624;2023-01-15T14:30:04;12.5;;;2.5;;
49582;SDS011;36329;48.816;44.624;2023-01-15T14:33:26;12.3;;;2.1;;
49582;SDS011;36329;48.816;44.624;2023-01-15T14:36:48;8.4;;;2.3;;
49582;SDS011;36329;48.816;44.624;2023-01-15T14:40:00;8.5;;;2.2;;
49582;SDS011;36329;48.816;44.624;2023-01-15T14:43:09;8.5;;;2.4;;
49582;SDS011;36329;48.816;44.624;2023-01-15T14:49:43;10.2;;;2.1;;
49582;SDS011;36329;48.816;44.624;2023-01-15T14:52:54;8.1;;;2.3;;
49582;SDS011;36329;48.816;44.624;2023-01-15T14:56:11;10.6;;;2.5;;
49582;SDS011;36329;48.816;44.624;2023-01-15T14:59:19;17.3;;;2.8;;
49582;SDS011;36329;48.816;44.624;2023-01-15T15:02:33;9.4;;;2.4;;
49582;SDS011;36329;48.816;44.624;2023-01-15T15:05:39;10.6;;;2;;
49582;SDS011;36329;48.816;44.624;2023-01-15T15:08:43;10.3;;;2.1;;
49582;SDS011;36329;48.816;44.624;2023-01-15T15:11:46;8.6;;;2.2;;
49582;SDS011;36329;48.816;44.624;2023-01-15T15:14:52;7.6;;;2.1;;
49582;SDS011;36329;48.816;44.624;2023-01-15T15:18:00;7.2;;;2;;
49582;SDS011;36329;48.816;44.624;2023-01-15T15:21:06;10.2;;;2.3;;
49582;SDS011;36329;48.816;44.624;2023-01-15T15:24:10;9.2;;;2.2;;
49582;SDS011;36329;48.816;44.624;2023-01-15T15:27:17;9.1;;;2.2;;
49582;SDS011;36329;48.816;44.624;2023-01-15T15:30:21;10.5;;;2.2;;
49582;SDS011;36329;48.816;44.624;2023-01-15T15:33:24;8.8;;;2.3;;
49582;SDS011;36329;48.816;44.624;2023-01-15T15:36:27;8.3;;;2.5;;
49582;SDS011;36329;48.816;44.624;2023-01-15T15:39:34;7.6;;;1.8;;
49582;SDS011;36329;48.816;44.624;2023-01-15T15:42:44;9.6;;;2.2;;
49582;SDS011;36329;48.816;44.624;2023-01-15T15:45:52;6.5;;;2.1;;
49582;SDS011;36329;48.816;44.624;2023-01-15T15:48:56;6.8;;;1.8;;
49582;SDS011;36329;48.816;44.624;2023-01-15T15:51:58;6.8;;;2.2;;
49582;SDS011;36329;48.816;44.624;2023-01-15T15:55:00;9.8;;;2;;
49582;SDS011;36329;48.816;44.624;2023-01-15T15:58:05;8;;;1.8;;
49582;SDS011;36329;48.816;44.624;2023-01-15T16:01:09;6.5;;;2.4;;
49582;SDS011;36329;48.816;44.624;2023-01-15T16:04:15;6.5;;;2.1;;
49582;SDS011;36329;48.816;44.624;2023-01-15T16:07:20;10.3;;;2.3;;
49582;SDS011;36329;48.816;44.624;2023-01-15T16:10:24;11.6;;;2.3;;
49582;SDS011;36329;48.816;44.624;2023-01-15T16:13:28;6.6;;;1.9;;
49582;SDS011;36329;48.816;44.624;2023-01-15T16:16:33;8;;;2.2;;
49582;SDS011;36329;48.816;44.624;2023-01-15T16:19:35;7.6;;;2.2;;
49582;SDS011;36329;48.816;44.624;2023-01-15T16:22:37;8.5;;;2.2;;
49582;SDS011;36329;48.816;44.624;2023-01-15T16:25:53;6.3;;;1.8;;
49582;SDS011;36329;48.816;44.624;2023-01-15T16:28:57;10.1;;;2.2;;
49582;SDS011;36329;48.816;44.624;2023-01-15T16:32:06;8.2;;;2.3;;
49582;SDS011;36329;48.816;44.624;2023-01-15T16:35:15;8.8;;;2.2;;
49582;SDS011;36329;48.816;44.624;2023-01-15T16:38:19;10.7;;;2.1;;
49582;SDS011;36329;48.816;44.624;2023-01-15T16:41:23;7;;;1.9;;
49582;SDS011;36329;48.816;44.624;2023-01-15T16:44:33;8;;;2.1;;
49582;SDS011;36329;48.816;44.624;2023-01-15T16:47:38;6.9;;;2;;
49582;SDS011;36329;48.816;44.624;2023-01-15T16:50:39;8.9;;;2.3;;
49582;SDS011;36329;48.816;44.624;2023-01-15T16:53:41;6.4;;;2.2;;
49582;SDS011;36329;48.816;44.624;2023-01-15T16:56:51;11.2;;;2.1;;
49582;SDS011;36329;48.816;44.624;2023-01-15T16:59:56;5.9;;;2.1;;
49582;SDS011;36329;48.816;44.624;2023-01-15T17:02:58;8.7;;;2.3;;
49582;SDS011;36329;48.816;44.624;2023-01-15T17:06:01;9.4;;;2.1;;
49582;SDS011;36329;48.816;44.624;2023-01-15T17:09:13;7.2;;;2.1;;
49582;SDS011;36329;48.816;44.624;2023-01-15T17:12:18;8;;;2.1;;
49582;SDS011;36329;48.816;44.624;2023-01-15T17:15:35;6.6;;;2;;
49582;SDS011;36329;48.816;44.624;2023-01-15T17:18:37;6.2;;;1.7;;
49582;SDS011;36329;48.816;44.624;2023-01-15T17:21:40;8.7;;;2.2;;
49582;SDS011;36329;48.816;44.624;2023-01-15T17:24:46;10.7;;;2.3;;
49582;SDS011;36329;48.816;44.624;2023-01-15T17:27:48;5;;;1.9;;
49582;SDS011;36329;48.816;44.624;2023-01-15T17:30:51;7.7;;;1.9;;
49582;SDS011;36329;48.816;44.624;2023-01-15T17:33:54;7.9;;;2.3;;
49582;SDS011;36329;48.816;44.624;2023-01-15T17:36:56;12.6;;;2.4;;
49582;SDS011;36329;48.816;44.624;2023-01-15T17:39:58;8.4;;;2.7;;
49582;SDS011;36329;48.816;44.624;2023-01-15T17:42:59;8.5;;;2.6;;
49582;SDS011;36329;48.816;44.624;2023-01-15T17:46:01;10.3;;;2.7;;
49582;SDS011;36329;48.816;44.624;2023-01-15T17:49:03;13.1;;;3;;
49582;SDS011;36329;48.816;44.624;2023-01-15T17:52:05;7.1;;;2.8;;
49582;SDS011;36329;48.816;44.624;2023-01-15T17:55:09;9.9;;;2.9;;
49582;SDS011;36329;48.816;44.624;2023-01-15T17:58:13;9.8;;;3;;
49582;SDS011;36329;48.816;44.624;2023-01-15T18:01:16;6.5;;;2.4;;
49582;SDS011;36329;48.816;44.624;2023-01-15T18:04:20;12.3;;;2.9;;
49582;SDS011;36329;48.816;44.624;2023-01-15T18:07:25;6.9;;;2.5;;
49582;SDS011;36329;48.816;44.624;2023-01-15T18:10:32;6.7;;;2.5;;
49582;SDS011;36329;48.816;44.624;2023-01-15T18:13:34;5.3;;;2.4;;
49582;SDS011;36329;48.816;44.624;2023-01-15T18:16:36;8.8;;;2.6;;
49582;SDS011;36329;48.816;44.624;2023-01-15T18:19:38;7.9;;;2.1;;
49582;SDS011;36329;48.816;44.624;2023-01-15T18:22:39;5.7;;;2.1;;
49582;SDS011;36329;48.816;44.624;2023-01-15T18:25:41;7;;;1.7;;
49582;SDS011;36329;48.816;44.624;2023-01-15T18:28:43;7.3;;;2.2;;
49582;SDS011;36329;48.816;44.624;2023-01-15T18:31:44;5.3;;;1.9;;
49582;SDS011;36329;48.816;44.624;2023-01-15T18:34:46;6.8;;;2;;
49582;SDS011;36329;48.816;44.624;2023-01-15T18:37:48;7.7;;;1.9;;
49582;SDS011;36329;48.816;44.624;2023-01-15T18:40:49;5.9;;;1.8;;
49582;SDS011;36329;48.816;44.624;2023-01-15T18:43:51;6.8;;;1.8;;
49582;SDS011;36329;48.816;44.624;2023-01-15T18:46:53;5.7;;;2;;
49582;SDS011;36329;48.816;44.624;2023-01-15T18:49:56;4.8;;;1.7;;